sensor_id;sensor_type;location;lat;lon;timestamp;pressure;altitude;pressure_sealevel;temperature;humidity
54554;BME280;40450;55.848;-3.572;2023-03-22T00:00:37;96464.66;;;2.72;100.00
54554;BME280;40450;55.848;-3.572;2023-03-22T00:03:08;96465.18;;;2.59;100.00
54554;BME280;40450;55.848;-3.572;2023-03-22T00:05:38;96449.80;;;2.85;100.00
54554;BME280;40450;55.848;-3.572;2023-03-22T00:08:08;96438.76;;;3.17;100.00
54554;BME280;40450;55.848;-3.572;2023-03-22T00:10:40;96434.09;;;3.03;100.00
54554;BME280;40450;55.848;-3.572;2023-03-22T00:13:10;96419.38;;;2.62;100.00
54554;BME280;40450;55.848;-3.572;2023-03-22T00:15:39;96426.53;;;2.77;100.00
54554;BME280;40450;55.848;-3.572;2023-03-22T00:18:10;96422.49;;;2.47;100.00
54554;BME280;40450;55.848;-3.572;2023-03-22T00:20:46;96421.03;;;2.59;100.00
54554;BME280;40450;55.848;-3.572;2023-03-22T00:23:10;96407.85;;;2.54;100.00
54554;BME280;40450;55.848;-3.572;2023-03-22T00:25:43;96401.38;;;2.74;100.00
54554;BME280;40450;55.848;-3.572;2023-03-22T00:28:11;96398.68;;;2.92;100.00
54554;BME280;40450;55.848;-3.572;2023-03-22T00:30:42;96382.65;;;3.15;100.00
54554;BME280;40450;55.848;-3.572;2023-03-22T00:33:11;96388.62;;;3.10;100.00
54554;BME280;40450;55.848;-3.572;2023-03-22T00:35:47;96389.83;;;3.44;100.00
54554;BME280;40450;55.848;-3.572;2023-03-22T00:38:12;96401.58;;;2.72;100.00
54554;BME280;40450;55.848;-3.572;2023-03-22T00:40:43;96361.88;;;2.91;100.00
54554;BME280;40450;55.848;-3.572;2023-03-22T00:43:13;96366.21;;;3.17;100.00
54554;BME280;40450;55.848;-3.572;2023-03-22T00:45:43;96364.75;;;2.82;100.00
54554;BME280;40450;55.848;-3.572;2023-03-22T00:48:14;96363.81;;;3.07;100.00
54554;BME280;40450;55.848;-3.572;2023-03-22T00:50:45;96352.47;;;2.98;100.00
54554;BME280;40450;55.848;-3.572;2023-03-22T00:53:15;96343.93;;;3.00;100.00
54554;BME280;40450;55.848;-3.572;2023-03-22T00:55:45;96358.45;;;3.20;100.00
54554;BME280;40450;55.848;-3.572;2023-03-22T00:58:15;96348.77;;;3.56;100.00
54554;BME280;40450;55.848;-3.572;2023-03-22T01:00:46;96339.92;;;3.51;100.00
54554;BME280;40450;55.848;-3.572;2023-03-22T01:03:16;96328.25;;;3.36;100.00
54554;BME280;40450;55.848;-3.572;2023-03-22T01:05:47;96330.99;;;3.50;100.00
54554;BME280;40450;55.848;-3.572;2023-03-22T01:08:17;96316.13;;;2.91;100.00
54554;BME280;40450;55.848;-3.572;2023-03-22T01:10:47;96298.65;;;2.84;100.00
54554;BME280;40450;55.848;-3.572;2023-03-22T01:13:17;96289.80;;;3.10;100.00
54554;BME280;40450;55.848;-3.572;2023-03-22T01:15:49;96277.90;;;2.85;100.00
54554;BME280;40450;55.848;-3.572;2023-03-22T01:18:18;96277.13;;;2.96;100.00
54554;BME280;40450;55.848;-3.572;2023-03-22T01:20:48;96261.56;;;3.53;100.00
54554;BME280;40450;55.848;-3.572;2023-03-22T01:23:19;96249.52;;;4.02;100.00
54554;BME280;40450;55.848;-3.572;2023-03-22T01:25:49;96257.62;;;3.61;100.00
54554;BME280;40450;55.848;-3.572;2023-03-22T01:28:20;96245.61;;;3.99;100.00
54554;BME280;40450;55.848;-3.572;2023-03-22T01:30:50;96236.06;;;4.07;100.00
54554;BME280;40450;55.848;-3.572;2023-03-22T01:33:21;96240.47;;;3.62;100.00
54554;BME280;40450;55.848;-3.572;2023-03-22T01:35:51;96232.51;;;3.70;100.00
54554;BME280;40450;55.848;-3.572;2023-03-22T01:38:21;96219.57;;;3.31;100.00
54554;BME280;40450;55.848;-3.572;2023-03-22T01:40:52;96194.77;;;3.32;100.00
54554;BME280;40450;55.848;-3.572;2023-03-22T01:43:23;96203.97;;;2.98;100.00
54554;BME280;40450;55.848;-3.572;2023-03-22T01:45:53;96201.32;;;3.08;100.00
54554;BME280;40450;55.848;-3.572;2023-03-22T01:48:25;96213.66;;;2.89;100.00
54554;BME280;40450;55.848;-3.572;2023-03-22T01:51:00;96192.13;;;2.89;100.00
54554;BME280;40450;55.848;-3.572;2023-03-22T01:53:24;96176.10;;;3.24;100.00
54554;BME280;40450;55.848;-3.572;2023-03-22T01:55:54;96173.54;;;3.33;100.00
54554;BME280;40450;55.848;-3.572;2023-03-22T01:58:25;96167.69;;;3.65;100.00
54554;BME280;40450;55.848;-3.572;2023-03-22T02:00:55;96163.26;;;3.47;100.00
54554;BME280;40450;55.848;-3.572;2023-03-22T02:03:31;96163.64;;;3.36;100.00
54554;BME280;40450;55.848;-3.572;2023-03-22T02:05:56;96146.24;;;4.04;100.00
54554;BME280;40450;55.848;-3.572;2023-03-22T02:08:26;96133.90;;;3.47;100.00
54554;BME280;40450;55.848;-3.572;2023-03-22T02:10:56;96095.89;;;3.34;100.00
54554;BME280;40450;55.848;-3.572;2023-03-22T02:13:40;96129.74;;;3.39;100.00
54554;BME280;40450;55.848;-3.572;2023-03-22T02:16:07;96161.90;;;3.53;100.00
54554;BME280;40450;55.848;-3.572;2023-03-22T02:18:37;96165.72;;;3.00;100.00
54554;BME280;40450;55.848;-3.572;2023-03-22T02:28:36;96113.94;;;3.57;100.00
54554;BME280;40450;55.848;-3.572;2023-03-22T02:31:12;96110.62;;;3.32;100.00
54554;BME280;40450;55.848;-3.572;2023-03-22T02:33:41;96106.11;;;3.55;100.00
54554;BME280;40450;55.848;-3.572;2023-03-22T02:41:08;96109.96;;;3.54;100.00
54554;BME280;40450;55.848;-3.572;2023-03-22T02:43:35;96108.94;;;3.72;100.00
54554;BME280;40450;55.848;-3.572;2023-03-22T02:46:05;96121.14;;;3.27;100.00
54554;BME280;40450;55.848;-3.572;2023-03-22T02:48:36;96135.03;;;3.59;100.00
54554;BME280;40450;55.848;-3.572;2023-03-22T02:51:05;96134.60;;;3.79;100.00
54554;BME280;40450;55.848;-3.572;2023-03-22T02:53:35;96129.95;;;3.53;100.00
54554;BME280;40450;55.848;-3.572;2023-03-22T02:56:06;96123.92;;;3.34;100.00
54554;BME280;40450;55.848;-3.572;2023-03-22T02:58:36;96114.47;;;3.79;100.00
54554;BME280;40450;55.848;-3.572;2023-03-22T03:01:06;96110.96;;;3.79;100.00
54554;BME280;40450;55.848;-3.572;2023-03-22T03:03:35;96117.95;;;3.57;100.00
54554;BME280;40450;55.848;-3.572;2023-03-22T03:06:07;96115.88;;;3.87;100.00
54554;BME280;40450;55.848;-3.572;2023-03-22T03:08:36;96106.76;;;4.02;100.00
54554;BME280;40450;55.848;-3.572;2023-03-22T03:11:07;96110.36;;;3.94;100.00
54554;BME280;40450;55.848;-3.572;2023-03-22T03:13:35;96115.86;;;4.06;100.00
54554;BME280;40450;55.848;-3.572;2023-03-22T03:16:09;96120.73;;;4.03;100.00
54554;BME280;40450;55.848;-3.572;2023-03-22T03:18:41;96115.18;;;4.00;100.00
54554;BME280;40450;55.848;-3.572;2023-03-22T03:21:16;96109.84;;;3.56;100.00
54554;BME280;40450;55.848;-3.572;2023-03-22T03:23:48;96109.86;;;3.33;100.00
54554;BME280;40450;55.848;-3.572;2023-03-22T03:26:12;96113.30;;;3.51;100.00
54554;BME280;40450;55.848;-3.572;2023-03-22T03:28:45;96107.32;;;3.89;100.00
54554;BME280;40450;55.848;-3.572;2023-03-22T03:31:17;96112.21;;;4.67;100.00
54554;BME280;40450;55.848;-3.572;2023-03-22T03:33:52;96105.93;;;4.97;100.00
54554;BME280;40450;55.848;-3.572;2023-03-22T03:36:11;96122.58;;;4.52;100.00
54554;BME280;40450;55.848;-3.572;2023-03-22T03:38:42;96136.10;;;4.86;100.00
54554;BME280;40450;55.848;-3.572;2023-03-22T03:41:13;96141.42;;;4.30;100.00
54554;BME280;40450;55.848;-3.572;2023-03-22T03:43:41;96138.11;;;3.92;100.00
54554;BME280;40450;55.848;-3.572;2023-03-22T03:46:10;96146.96;;;4.28;100.00
54554;BME280;40450;55.848;-3.572;2023-03-22T03:48:44;96142.12;;;4.25;100.00
54554;BME280;40450;55.848;-3.572;2023-03-22T03:51:11;96146.66;;;3.79;100.00
54554;BME280;40450;55.848;-3.572;2023-03-22T03:53:41;96148.84;;;3.97;100.00
54554;BME280;40450;55.848;-3.572;2023-03-22T03:56:12;96143.22;;;3.71;100.00
54554;BME280;40450;55.848;-3.572;2023-03-22T03:58:42;96146.79;;;3.67;100.00
54554;BME280;40450;55.848;-3.572;2023-03-22T04:01:12;96161.36;;;3.80;100.00
54554;BME280;40450;55.848;-3.572;2023-03-22T04:03:43;96181.57;;;3.75;100.00
54554;BME280;40450;55.848;-3.572;2023-03-22T04:06:14;96172.61;;;3.53;100.00
54554;BME280;40450;55.848;-3.572;2023-03-22T04:08:45;96170.39;;;3.50;100.00
54554;BME280;40450;55.848;-3.572;2023-03-22T04:11:14;96159.29;;;3.11;100.00
54554;BME280;40450;55.848;-3.572;2023-03-22T04:13:45;96192.07;;;3.18;100.00
54554;BME280;40450;55.848;-3.572;2023-03-22T04:16:15;96179.80;;;2.81;100.00
54554;BME280;40450;55.848;-3.572;2023-03-22T04:18:45;96193.74;;;2.86;100.00
54554;BME280;40450;55.848;-3.572;2023-03-22T04:21:16;96207.48;;;2.83;99.73
54554;BME280;40450;55.848;-3.572;2023-03-22T04:23:46;96204.08;;;2.68;99.57
54554;BME280;40450;55.848;-3.572;2023-03-22T04:26:16;96197.30;;;2.48;99.58
54554;BME280;40450;55.848;-3.572;2023-03-22T04:28:46;96207.02;;;2.46;98.90
54554;BME280;40450;55.848;-3.572;2023-03-22T04:31:23;96202.01;;;3.07;98.89
54554;BME280;40450;55.848;-3.572;2023-03-22T04:33:47;96199.09;;;3.07;97.59
54554;BME280;40450;55.848;-3.572;2023-03-22T04:36:18;96203.78;;;3.12;96.98
54554;BME280;40450;55.848;-3.572;2023-03-22T04:38:49;96224.29;;;3.10;96.89
54554;BME280;40450;55.848;-3.572;2023-03-22T04:41:19;96226.01;;;2.99;97.27
54554;BME280;40450;55.848;-3.572;2023-03-22T04:43:49;96223.62;;;3.04;97.54
54554;BME280;40450;55.848;-3.572;2023-03-22T04:46:20;96231.94;;;4.03;96.18
54554;BME280;40450;55.848;-3.572;2023-03-22T04:48:50;96239.75;;;4.13;95.83
54554;BME280;40450;55.848;-3.572;2023-03-22T04:51:20;96237.40;;;3.65;96.38
54554;BME280;40450;55.848;-3.572;2023-03-22T04:53:50;96267.55;;;2.73;96.81
54554;BME280;40450;55.848;-3.572;2023-03-22T04:56:21;96287.33;;;1.83;99.79
54554;BME280;40450;55.848;-3.572;2023-03-22T04:58:54;96271.60;;;2.05;99.63
54554;BME280;40450;55.848;-3.572;2023-03-22T05:01:26;96301.76;;;1.31;100.00
54554;BME280;40450;55.848;-3.572;2023-03-22T05:03:52;96305.06;;;1.46;100.00
54554;BME280;40450;55.848;-3.572;2023-03-22T05:06:28;96321.81;;;1.10;100.00
54554;BME280;40450;55.848;-3.572;2023-03-22T05:11:25;96302.92;;;0.63;100.00
54554;BME280;40450;55.848;-3.572;2023-03-22T05:13:54;96305.38;;;0.41;100.00
54554;BME280;40450;55.848;-3.572;2023-03-22T05:16:24;96318.06;;;0.21;100.00
54554;BME280;40450;55.848;-3.572;2023-03-22T05:18:57;96313.87;;;0.51;100.00
54554;BME280;40450;55.848;-3.572;2023-03-22T05:21:27;96324.72;;;0.46;100.00
54554;BME280;40450;55.848;-3.572;2023-03-22T05:23:58;96333.00;;;0.26;100.00
54554;BME280;40450;55.848;-3.572;2023-03-22T05:31:27;96342.45;;;0.14;100.00
54554;BME280;40450;55.848;-3.572;2023-03-22T05:33:58;96350.60;;;0.76;100.00
54554;BME280;40450;55.848;-3.572;2023-03-22T05:36:29;96357.19;;;0.65;100.00
54554;BME280;40450;55.848;-3.572;2023-03-22T05:38:58;96366.16;;;-0.41;100.00
54554;BME280;40450;55.848;-3.572;2023-03-22T05:41:28;96364.97;;;-0.56;100.00
54554;BME280;40450;55.848;-3.572;2023-03-22T05:43:59;96372.08;;;0.24;100.00
54554;BME280;40450;55.848;-3.572;2023-03-22T05:46:28;96366.42;;;-0.40;100.00
54554;BME280;40450;55.848;-3.572;2023-03-22T05:48:59;96376.63;;;0.21;99.26
54554;BME280;40450;55.848;-3.572;2023-03-22T05:51:29;96378.63;;;0.10;99.26
54554;BME280;40450;55.848;-3.572;2023-03-22T05:54:00;96384.70;;;-0.31;100.00
54554;BME280;40450;55.848;-3.572;2023-03-22T05:56:30;96375.57;;;-0.37;100.00
54554;BME280;40450;55.848;-3.572;2023-03-22T05:59:01;96381.60;;;-0.14;100.00
54554;BME280;40450;55.848;-3.572;2023-03-22T06:01:31;96383.42;;;0.01;99.95
54554;BME280;40450;55.848;-3.572;2023-03-22T06:04:01;96387.48;;;0.00;100.00
54554;BME280;40450;55.848;-3.572;2023-03-22T06:06:32;96370.26;;;0.20;100.00
54554;BME280;40450;55.848;-3.572;2023-03-22T06:09:02;96389.81;;;0.09;100.00
54554;BME280;40450;55.848;-3.572;2023-03-22T06:11:32;96396.77;;;0.20;100.00
54554;BME280;40450;55.848;-3.572;2023-03-22T06:14:04;96399.79;;;0.55;99.58
54554;BME280;40450;55.848;-3.572;2023-03-22T06:16:33;96408.50;;;0.44;99.11
54554;BME280;40450;55.848;-3.572;2023-03-22T06:19:04;96406.76;;;-0.30;99.96
54554;BME280;40450;55.848;-3.572;2023-03-22T06:21:34;96411.08;;;-0.47;100.00
54554;BME280;40450;55.848;-3.572;2023-03-22T06:24:05;96415.95;;;-0.92;100.00
54554;BME280;40450;55.848;-3.572;2023-03-22T06:26:35;96417.87;;;-0.25;99.66
54554;BME280;40450;55.848;-3.572;2023-03-22T06:29:05;96422.56;;;-0.55;99.87
54554;BME280;40450;55.848;-3.572;2023-03-22T06:31:42;96425.42;;;-0.63;99.31
54554;BME280;40450;55.848;-3.572;2023-03-22T06:34:09;96430.26;;;-0.50;98.96
54554;BME280;40450;55.848;-3.572;2023-03-22T06:36:36;96432.31;;;-0.28;98.97
54554;BME280;40450;55.848;-3.572;2023-03-22T06:39:07;96428.99;;;-0.54;98.37
54554;BME280;40450;55.848;-3.572;2023-03-22T06:41:37;96435.00;;;-0.38;98.92
54554;BME280;40450;55.848;-3.572;2023-03-22T06:44:07;96439.92;;;-0.50;98.21
54554;BME280;40450;55.848;-3.572;2023-03-22T06:46:38;96435.57;;;-0.28;98.16
54554;BME280;40450;55.848;-3.572;2023-03-22T06:49:08;96437.64;;;-0.20;97.98
54554;BME280;40450;55.848;-3.572;2023-03-22T06:51:38;96435.99;;;-0.43;98.09
54554;BME280;40450;55.848;-3.572;2023-03-22T06:54:08;96432.88;;;-0.95;98.73
54554;BME280;40450;55.848;-3.572;2023-03-22T06:56:39;96432.31;;;-0.52;98.36
54554;BME280;40450;55.848;-3.572;2023-03-22T06:59:09;96444.33;;;-0.89;98.48
54554;BME280;40450;55.848;-3.572;2023-03-22T07:01:40;96439.13;;;-0.75;98.71
54554;BME280;40450;55.848;-3.572;2023-03-22T07:04:10;96439.82;;;-0.57;98.38
54554;BME280;40450;55.848;-3.572;2023-03-22T07:06:41;96438.25;;;-0.94;98.58
54554;BME280;40450;55.848;-3.572;2023-03-22T07:09:11;96436.38;;;-1.35;99.14
54554;BME280;40450;55.848;-3.572;2023-03-22T07:11:41;96438.75;;;-1.29;99.30
54554;BME280;40450;55.848;-3.572;2023-03-22T07:14:12;96440.21;;;-1.13;98.91
54554;BME280;40450;55.848;-3.572;2023-03-22T07:16:42;96455.23;;;-1.58;99.29
54554;BME280;40450;55.848;-3.572;2023-03-22T07:19:13;96456.21;;;-1.56;99.50
54554;BME280;40450;55.848;-3.572;2023-03-22T07:21:43;96452.69;;;-1.39;99.41
54554;BME280;40450;55.848;-3.572;2023-03-22T07:24:13;96448.21;;;-1.16;98.82
54554;BME280;40450;55.848;-3.572;2023-03-22T07:26:44;96460.66;;;-1.20;98.70
54554;BME280;40450;55.848;-3.572;2023-03-22T07:29:14;96460.34;;;-0.84;98.35
54554;BME280;40450;55.848;-3.572;2023-03-22T07:31:45;96460.93;;;-0.96;98.24
54554;BME280;40450;55.848;-3.572;2023-03-22T07:34:16;96466.01;;;-0.80;98.02
54554;BME280;40450;55.848;-3.572;2023-03-22T07:36:45;96468.68;;;-1.48;98.91
54554;BME280;40450;55.848;-3.572;2023-03-22T07:39:16;96478.18;;;-1.77;99.52
54554;BME280;40450;55.848;-3.572;2023-03-22T07:41:46;96472.78;;;-1.56;99.53
54554;BME280;40450;55.848;-3.572;2023-03-22T07:44:17;96486.15;;;-1.35;98.94
54554;BME280;40450;55.848;-3.572;2023-03-22T07:46:47;96484.33;;;-0.91;98.71
54554;BME280;40450;55.848;-3.572;2023-03-22T07:49:18;96483.64;;;-0.06;97.60
54554;BME280;40450;55.848;-3.572;2023-03-22T07:51:48;96484.74;;;-0.24;97.18
54554;BME280;40450;55.848;-3.572;2023-03-22T07:54:19;96480.24;;;-1.11;98.46
54554;BME280;40450;55.848;-3.572;2023-03-22T07:56:49;96489.38;;;-0.86;98.88
54554;BME280;40450;55.848;-3.572;2023-03-22T07:59:19;96496.79;;;-0.99;98.67
54554;BME280;40450;55.848;-3.572;2023-03-22T08:01:49;96497.23;;;-0.30;97.70
54554;BME280;40450;55.848;-3.572;2023-03-22T08:04:20;96491.85;;;-0.59;97.73
54554;BME280;40450;55.848;-3.572;2023-03-22T08:06:50;96506.34;;;-0.26;97.30
54554;BME280;40450;55.848;-3.572;2023-03-22T08:09:20;96496.30;;;-1.04;98.08
54554;BME280;40450;55.848;-3.572;2023-03-22T08:11:51;96498.30;;;-0.94;98.13
54554;BME280;40450;55.848;-3.572;2023-03-22T08:14:21;96496.99;;;-0.34;97.70
54554;BME280;40450;55.848;-3.572;2023-03-22T08:16:52;96494.25;;;0.05;97.37
54554;BME280;40450;55.848;-3.572;2023-03-22T08:19:22;96500.63;;;-0.13;97.12
54554;BME280;40450;55.848;-3.572;2023-03-22T08:21:52;96503.31;;;-0.15;97.60
54554;BME280;40450;55.848;-3.572;2023-03-22T08:24:22;96501.40;;;0.29;96.92
54554;BME280;40450;55.848;-3.572;2023-03-22T08:26:53;96496.19;;;0.41;96.06
54554;BME280;40450;55.848;-3.572;2023-03-22T08:29:24;96489.66;;;0.05;96.27
54554;BME280;40450;55.848;-3.572;2023-03-22T08:31:54;96478.90;;;-0.32;96.72
54554;BME280;40450;55.848;-3.572;2023-03-22T08:34:24;96479.58;;;0.06;96.53
54554;BME280;40450;55.848;-3.572;2023-03-22T08:36:55;96472.44;;;-0.17;96.82
54554;BME280;40450;55.848;-3.572;2023-03-22T08:39:26;96467.00;;;0.02;97.04
54554;BME280;40450;55.848;-3.572;2023-03-22T08:41:55;96474.82;;;-0.58;97.72
54554;BME280;40450;55.848;-3.572;2023-03-22T08:44:26;96474.37;;;-0.19;97.44
54554;BME280;40450;55.848;-3.572;2023-03-22T08:47:01;96474.94;;;-0.47;97.52
54554;BME280;40450;55.848;-3.572;2023-03-22T08:49:26;96470.18;;;0.24;96.97
54554;BME280;40450;55.848;-3.572;2023-03-22T08:51:57;96470.77;;;-0.12;96.61
54554;BME280;40450;55.848;-3.572;2023-03-22T08:54:27;96478.84;;;0.68;96.04
54554;BME280;40450;55.848;-3.572;2023-03-22T08:56:58;96463.42;;;0.66;95.44
54554;BME280;40450;55.848;-3.572;2023-03-22T08:59:28;96472.33;;;0.39;96.00
54554;BME280;40450;55.848;-3.572;2023-03-22T09:01:58;96468.14;;;0.31;96.20
54554;BME280;40450;55.848;-3.572;2023-03-22T09:04:28;96467.54;;;0.44;94.75
54554;BME280;40450;55.848;-3.572;2023-03-22T09:06:58;96478.78;;;0.36;95.94
54554;BME280;40450;55.848;-3.572;2023-03-22T09:09:29;96462.85;;;0.58;95.27
54554;BME280;40450;55.848;-3.572;2023-03-22T09:12:00;96489.41;;;0.09;95.78
54554;BME280;40450;55.848;-3.572;2023-03-22T09:14:30;96490.30;;;0.89;95.09
54554;BME280;40450;55.848;-3.572;2023-03-22T09:17:00;96483.07;;;0.80;94.51
54554;BME280;40450;55.848;-3.572;2023-03-22T09:19:30;96489.01;;;0.75;95.01
54554;BME280;40450;55.848;-3.572;2023-03-22T09:22:01;96491.44;;;0.42;95.40
54554;BME280;40450;55.848;-3.572;2023-03-22T09:24:31;96485.97;;;0.57;95.40
54554;BME280;40450;55.848;-3.572;2023-03-22T09:27:01;96483.84;;;1.13;93.68
54554;BME280;40450;55.848;-3.572;2023-03-22T09:29:32;96495.78;;;1.43;93.23
54554;BME280;40450;55.848;-3.572;2023-03-22T09:32:02;96493.93;;;0.98;94.28
54554;BME280;40450;55.848;-3.572;2023-03-22T09:34:33;96493.44;;;1.36;93.77
54554;BME280;40450;55.848;-3.572;2023-03-22T09:37:03;96497.04;;;1.39;92.23
54554;BME280;40450;55.848;-3.572;2023-03-22T09:39:33;96480.41;;;1.04;93.08
54554;BME280;40450;55.848;-3.572;2023-03-22T09:42:06;96478.74;;;1.01;93.17
54554;BME280;40450;55.848;-3.572;2023-03-22T09:44:38;96493.65;;;1.17;93.21
54554;BME280;40450;55.848;-3.572;2023-03-22T09:47:06;96485.58;;;1.81;92.90
54554;BME280;40450;55.848;-3.572;2023-03-22T09:49:39;96495.40;;;1.41;92.81
54554;BME280;40450;55.848;-3.572;2023-03-22T09:52:10;96486.28;;;1.43;91.76
54554;BME280;40450;55.848;-3.572;2023-03-22T09:54:37;96491.63;;;1.92;92.51
54554;BME280;40450;55.848;-3.572;2023-03-22T09:57:08;96485.70;;;2.18;91.09
54554;BME280;40450;55.848;-3.572;2023-03-22T09:59:45;96482.46;;;1.78;91.33
54554;BME280;40450;55.848;-3.572;2023-03-22T10:02:18;96485.40;;;1.64;91.44
54554;BME280;40450;55.848;-3.572;2023-03-22T10:04:43;96501.13;;;2.17;91.54
54554;BME280;40450;55.848;-3.572;2023-03-22T10:07:13;96494.95;;;1.73;91.25
54554;BME280;40450;55.848;-3.572;2023-03-22T10:09:44;96485.78;;;1.45;90.70
54554;BME280;40450;55.848;-3.572;2023-03-22T10:12:14;96478.54;;;1.17;89.94
54554;BME280;40450;55.848;-3.572;2023-03-22T10:14:41;96501.90;;;1.64;90.02
54554;BME280;40450;55.848;-3.572;2023-03-22T10:17:12;96490.82;;;2.16;88.71
54554;BME280;40450;55.848;-3.572;2023-03-22T10:19:48;96483.00;;;2.61;89.35
54554;BME280;40450;55.848;-3.572;2023-03-22T10:22:13;96491.06;;;3.00;87.94
54554;BME280;40450;55.848;-3.572;2023-03-22T10:24:44;96510.92;;;3.54;86.88
54554;BME280;40450;55.848;-3.572;2023-03-22T10:27:14;96516.22;;;3.02;87.20
54554;BME280;40450;55.848;-3.572;2023-03-22T10:29:44;96499.85;;;3.38;86.66
54554;BME280;40450;55.848;-3.572;2023-03-22T10:32:15;96499.54;;;3.21;86.62
54554;BME280;40450;55.848;-3.572;2023-03-22T10:34:42;96502.59;;;3.68;87.16
54554;BME280;40450;55.848;-3.572;2023-03-22T10:37:14;96512.83;;;3.20;87.53
54554;BME280;40450;55.848;-3.572;2023-03-22T10:39:45;96518.18;;;3.69;86.65
54554;BME280;40450;55.848;-3.572;2023-03-22T10:42:14;96530.89;;;3.86;86.90
54554;BME280;40450;55.848;-3.572;2023-03-22T10:44:47;96525.75;;;3.87;87.35
54554;BME280;40450;55.848;-3.572;2023-03-22T10:47:14;96532.44;;;4.47;87.13
54554;BME280;40450;55.848;-3.572;2023-03-22T10:49:45;96541.43;;;4.53;85.69
54554;BME280;40450;55.848;-3.572;2023-03-22T10:52:25;96537.76;;;3.99;84.38
54554;BME280;40450;55.848;-3.572;2023-03-22T10:54:44;96554.81;;;3.90;85.57
54554;BME280;40450;55.848;-3.572;2023-03-22T10:57:14;96542.91;;;4.39;84.77
54554;BME280;40450;55.848;-3.572;2023-03-22T10:59:46;96550.46;;;3.93;87.25
54554;BME280;40450;55.848;-3.572;2023-03-22T11:02:18;96546.18;;;3.90;85.33
54554;BME280;40450;55.848;-3.572;2023-03-22T11:04:48;96562.69;;;4.18;86.03
54554;BME280;40450;55.848;-3.572;2023-03-22T11:07:26;96559.05;;;4.46;85.22
54554;BME280;40450;55.848;-3.572;2023-03-22T11:09:46;96561.43;;;4.03;83.42
54554;BME280;40450;55.848;-3.572;2023-03-22T11:12:17;96566.58;;;3.90;85.31
54554;BME280;40450;55.848;-3.572;2023-03-22T11:14:47;96564.32;;;3.71;84.49
54554;BME280;40450;55.848;-3.572;2023-03-22T11:17:20;96557.80;;;3.81;83.53
54554;BME280;40450;55.848;-3.572;2023-03-22T11:19:51;96576.88;;;4.29;85.39
54554;BME280;40450;55.848;-3.572;2023-03-22T11:22:23;96568.62;;;5.04;84.07
54554;BME280;40450;55.848;-3.572;2023-03-22T11:24:50;96569.03;;;5.02;84.69
54554;BME280;40450;55.848;-3.572;2023-03-22T11:27:22;96580.70;;;5.32;84.19
54554;BME280;40450;55.848;-3.572;2023-03-22T11:29:51;96581.76;;;4.75;85.08
54554;BME280;40450;55.848;-3.572;2023-03-22T11:32:24;96587.62;;;4.58;85.06
54554;BME280;40450;55.848;-3.572;2023-03-22T11:34:58;96586.04;;;4.57;84.09
54554;BME280;40450;55.848;-3.572;2023-03-22T11:37:21;96587.72;;;4.32;84.99
54554;BME280;40450;55.848;-3.572;2023-03-22T11:39:51;96589.21;;;4.77;85.22
54554;BME280;40450;55.848;-3.572;2023-03-22T11:42:21;96586.70;;;4.45;82.98
54554;BME280;40450;55.848;-3.572;2023-03-22T11:44:52;96583.88;;;4.78;84.02
54554;BME280;40450;55.848;-3.572;2023-03-22T11:47:24;96596.53;;;4.45;83.29
54554;BME280;40450;55.848;-3.572;2023-03-22T11:49:52;96591.30;;;4.31;85.61
54554;BME280;40450;55.848;-3.572;2023-03-22T11:52:24;96603.38;;;4.21;85.23
54554;BME280;40450;55.848;-3.572;2023-03-22T11:54:54;96592.16;;;3.98;86.80
54554;BME280;40450;55.848;-3.572;2023-03-22T11:57:26;96592.99;;;5.15;84.29
54554;BME280;40450;55.848;-3.572;2023-03-22T11:59:57;96608.57;;;5.17;83.86
54554;BME280;40450;55.848;-3.572;2023-03-22T12:02:26;96613.54;;;4.25;82.22
54554;BME280;40450;55.848;-3.572;2023-03-22T12:04:59;96612.45;;;4.39;84.04
54554;BME280;40450;55.848;-3.572;2023-03-22T12:07:27;96608.46;;;4.29;82.79
54554;BME280;40450;55.848;-3.572;2023-03-22T12:09:58;96622.38;;;4.12;83.72
54554;BME280;40450;55.848;-3.572;2023-03-22T12:12:29;96619.17;;;5.06;82.71
54554;BME280;40450;55.848;-3.572;2023-03-22T12:14:59;96628.97;;;5.64;82.56
54554;BME280;40450;55.848;-3.572;2023-03-22T12:17:30;96621.17;;;6.34;79.69
54554;BME280;40450;55.848;-3.572;2023-03-22T12:20:03;96626.54;;;5.55;80.10
54554;BME280;40450;55.848;-3.572;2023-03-22T12:22:30;96635.21;;;5.66;80.29
54554;BME280;40450;55.848;-3.572;2023-03-22T12:24:58;96640.89;;;6.03;79.58
54554;BME280;40450;55.848;-3.572;2023-03-22T12:27:32;96640.95;;;5.40;79.39
54554;BME280;40450;55.848;-3.572;2023-03-22T12:30:01;96639.43;;;5.14;81.01
54554;BME280;40450;55.848;-3.572;2023-03-22T12:32:33;96638.75;;;5.18;81.33
54554;BME280;40450;55.848;-3.572;2023-03-22T12:34:59;96635.28;;;5.11;82.51
54554;BME280;40450;55.848;-3.572;2023-03-22T12:37:32;96630.96;;;4.66;83.82
54554;BME280;40450;55.848;-3.572;2023-03-22T12:40:03;96640.81;;;4.64;83.45
54554;BME280;40450;55.848;-3.572;2023-03-22T12:42:35;96639.82;;;4.36;83.71
54554;BME280;40450;55.848;-3.572;2023-03-22T12:45:03;96638.78;;;4.77;83.81
54554;BME280;40450;55.848;-3.572;2023-03-22T12:47:35;96641.59;;;4.30;84.09
54554;BME280;40450;55.848;-3.572;2023-03-22T12:50:04;96653.12;;;4.49;82.76
54554;BME280;40450;55.848;-3.572;2023-03-22T12:52:36;96646.72;;;4.95;81.41
54554;BME280;40450;55.848;-3.572;2023-03-22T12:55:02;96652.09;;;5.10;80.07
54554;BME280;40450;55.848;-3.572;2023-03-22T12:57:32;96647.42;;;5.56;78.80
54554;BME280;40450;55.848;-3.572;2023-03-22T13:00:05;96654.92;;;5.71;80.17
54554;BME280;40450;55.848;-3.572;2023-03-22T13:02:34;96660.02;;;5.63;80.22
54554;BME280;40450;55.848;-3.572;2023-03-22T13:05:04;96648.59;;;5.46;79.50
54554;BME280;40450;55.848;-3.572;2023-03-22T13:07:41;96629.66;;;5.89;79.92
54554;BME280;40450;55.848;-3.572;2023-03-22T13:12:34;96643.57;;;5.52;81.42
54554;BME280;40450;55.848;-3.572;2023-03-22T13:17:43;96634.36;;;5.04;83.49
54554;BME280;40450;55.848;-3.572;2023-03-22T13:25:13;96638.09;;;5.81;81.22
54554;BME280;40450;55.848;-3.572;2023-03-22T13:27:37;96632.57;;;5.36;80.49
54554;BME280;40450;55.848;-3.572;2023-03-22T13:30:14;96626.72;;;4.94;81.08
54554;BME280;40450;55.848;-3.572;2023-03-22T13:32:36;96631.92;;;5.04;82.12
54554;BME280;40450;55.848;-3.572;2023-03-22T13:35:20;96626.73;;;5.60;81.20
54554;BME280;40450;55.848;-3.572;2023-03-22T13:37:44;96630.92;;;5.51;83.17
54554;BME280;40450;55.848;-3.572;2023-03-22T13:40:12;96632.30;;;5.77;83.85